Portada
METAR-TAF:

METAR-TAF

Aeropuertos :

Aeropuerto de Logroño-Agoncillo

Logroño, España

latitud: 42-27N, longitud: 002-20W, altitud: 353 m

Observación

El informe se hizo hace 29 minutos, a las 05:00 UTC
Viento 2 kt con dirección variable
Temperatura 15°C
Humedad 82%
Presión 1012 hPa
Visibilidad 10 km o más
Escasas nubes a una altura de 4000 ft
Nubes dispersas a una altura de 7000 ft

METAR: LELO 210500Z VRB02KT 9999 FEW040 SCT070 15/12 Q1012

Hora: 07:29 (05:29 UTC)

Pronóstico

El informe se hizo hace 3 horas y 29 minutos, a las 02:00 UTC
Pronóstico válido del 21 a las 03 UTC al 21 a las 12 UTC
Viento 8 kt del este-noreste
Visibilidad 10 km o más
Escasas nubes a una altura de 4500 ft
Probabilidad 30% :
Temporalmente
del 21 a las 10 UTC al 21 a las 12 UTC
Escasas nubes a una altura de 4000 ft, Cumulus congestus.

TAF: LELO 210200Z 2103/2112 07008KT 9999 FEW045 PROB30 TEMPO 2110/2112 FEW040TCU

Observaciones y pronósticos meteorológicos de más de 4000 aeropuertos (mensajes METAR y TAF).

Los puntos amarillos y rojos representan las estaciones disponibles.

Ponga el ratón en el punto deseado para ver el nombre de la estación.

Haga clic para ver las observaciones y los pronósticos meteorológicos.

Para cambiar el mapa : haga clic en los botones verdes con una cruz de color negro para hacer un zoom, en el botón verde con un guión para alejar o en las flechas verdes para mapas adyacentes.


METAR-TAF: